Hauptseite
METAR-TAF:

METAR-TAF

Flughäfen :

Flughafen Rom-Fiumicino

Rom-Fiumicino, Italien

Breite: 41-48N, Länge: 012-14E, Höhe: 2 m

Beobachtung

Neuester Wetterbericht von vor 31 Minuten, um 04:20 UTC
Wind 2 kt aus Nord/Nordost
Temperatur 1°C
Luftfeuchtigkeit 100%
Luftdruck 1026 hPa
Sichtweite: 5000 m
feuchter Dunst

METAR: LIRF 210420Z 03002KT 5000 BR NSC 01/01 Q1026 NOSIG

Zeit: 05:51 (04:51 UTC)

Prognose

Neuester Wetterbericht von vor 5 Stunden und 51 Minuten, um 23:00 UTC
Gültige Prognose vom 21 um 00 UTC bis 22 um 06 UTC
Wind 5 kt aus unterschiedlichen Richtungen
Sichtweite 10 km oder mehr
Leicht bewölkt in der Höhe von 2000 ft
Übergehend zu
vom 21 um 10 UTC bis 21 um 12 UTC
Wind 10 kt aus Nordwest

TAF: LIRF 202300Z 2100/2206 VRB05KT 9999 FEW020 BECMG 2110/2112 31010KT

Wetterbeobachtungen und Prognosen von mehr als 4000 Flughäfen (METAR und TAF Bericht).

Die verfügbaren Stationen werden durch gelbe und rote Markierungen auf der Karte dargestellt.

Führen Sie die Maus auf sie, um den Namen der Station zu sehen.

Darauf klicken, um die Beobachtung von Wetterbeobachtungen und Prognosen zu sehen.

Um die Karte zu ändern : klicken Sie auf den grünen Tasten mit einem schwarzen Kreuz Zum Vergrößern, auf den grünen Button mit einem Gedankenstrich zu verkleinern, oder auf die grünen Pfeile für benachbarte Karten.


METAR-TAF: